createdAt,value
2023-04-25T00:00:27.157Z,99235.29
2023-04-25T00:03:27.624Z,99234.37
2023-04-25T00:06:20.044Z,99234.27
2023-04-25T00:09:12.873Z,99231.38
2023-04-25T00:12:09.246Z,99232.50
2023-04-25T00:15:02.105Z,99230.05
2023-04-25T00:17:55.109Z,99225.52
2023-04-25T00:20:51.579Z,99227.23
2023-04-25T00:26:53.669Z,99227.96
2023-04-25T00:29:48.909Z,99228.35
2023-04-25T00:32:41.642Z,99227.85
2023-04-25T00:35:36.133Z,99233.91
2023-04-25T00:38:28.735Z,99226.80
2023-04-25T00:41:22.251Z,99227.40
2023-04-25T00:44:03.968Z,99227.38
2023-04-25T00:47:01.588Z,99230.13
2023-04-25T00:49:54.971Z,99224.58
2023-04-25T00:52:48.454Z,99228.77
2023-04-25T00:55:42.003Z,99227.65
2023-04-25T00:59:21.879Z,99228.60
2023-04-25T01:02:15.087Z,99226.49
2023-04-25T01:05:09.951Z,99230.62
2023-04-25T01:08:06.256Z,99232.80
2023-04-25T01:11:01.436Z,99232.15
2023-04-25T01:13:44.698Z,99234.27
2023-04-25T01:16:38.113Z,99232.58
2023-04-25T01:19:31.808Z,99233.17
2023-04-25T01:22:24.908Z,99234.06
2023-04-25T01:25:19.208Z,99229.70
2023-04-25T01:28:12.968Z,99229.23
2023-04-25T01:31:06.996Z,99231.81
2023-04-25T01:34:00.296Z,99230.33
2023-04-25T01:36:47.728Z,99224.88
2023-04-25T01:39:42.950Z,99224.40
2023-04-25T01:42:36.879Z,99222.39
2023-04-25T01:45:30.441Z,99215.92
2023-04-25T01:48:17.474Z,99217.14
2023-04-25T01:51:10.279Z,99214.71
2023-04-25T01:53:58.381Z,99215.36
2023-04-25T01:56:55.697Z,99217.20
2023-04-25T01:59:49.387Z,99220.13
2023-04-25T02:02:49.200Z,99212.35
2023-04-25T02:05:45.772Z,99221.39
2023-04-25T02:08:38.921Z,99221.30
2023-04-25T02:11:32.709Z,99220.31
2023-04-25T02:14:44.201Z,99216.90
2023-04-25T02:17:55.220Z,99214.69
2023-04-25T02:20:50.474Z,99213.58
2023-04-25T02:23:34.591Z,99214.14
2023-04-25T02:26:27.916Z,99211.70
2023-04-25T02:29:22.979Z,99212.17
2023-04-25T02:32:15.523Z,99211.98
2023-04-25T02:35:09.423Z,99213.09
2023-04-25T02:38:01.955Z,99212.03
2023-04-25T02:40:54.788Z,99207.61
2023-04-25T02:43:51.356Z,99205.52
2023-04-25T02:46:44.383Z,99208.60
2023-04-25T02:49:36.950Z,99202.31
2023-04-25T02:52:30.238Z,99204.48
2023-04-25T02:55:25.584Z,99203.37
2023-04-25T02:59:14.359Z,99203.84
2023-04-25T03:02:30.851Z,99200.95
2023-04-25T03:05:24.869Z,99201.73
2023-04-25T03:08:17.569Z,99199.34
2023-04-25T03:11:13.201Z,99201.11
2023-04-25T03:14:06.092Z,99200.00
2023-04-25T03:16:58.758Z,99206.26
2023-04-25T03:19:53.114Z,99210.80
2023-04-25T03:22:46.134Z,99210.50
2023-04-25T03:25:39.112Z,99214.01
2023-04-25T03:28:32.171Z,99211.81
2023-04-25T03:31:35.104Z,99212.83
2023-04-25T03:34:18.111Z,99216.67
2023-04-25T03:37:10.870Z,99215.35
2023-04-25T03:40:03.769Z,99220.39
2023-04-25T03:42:57.409Z,99225.66
2023-04-25T03:45:52.487Z,99230.21
2023-04-25T03:48:55.690Z,99234.72
2023-04-25T03:51:48.341Z,99229.36
2023-04-25T03:54:43.284Z,99235.56
2023-04-25T03:57:39.154Z,99235.27
2023-04-25T04:00:41.814Z,99237.33
2023-04-25T04:03:35.517Z,99240.17
2023-04-25T04:06:22.798Z,99237.16
2023-04-25T04:09:23.539Z,99243.77
2023-04-25T04:12:17.440Z,99246.05
2023-04-25T04:15:13.020Z,99248.20
2023-04-25T04:18:10.062Z,99251.02
2023-04-25T04:21:03.709Z,99251.83
2023-04-25T04:23:55.425Z,99251.19
2023-04-25T04:26:52.548Z,99253.27
2023-04-25T04:30:09.708Z,99249.30
2023-04-25T04:33:03.676Z,99250.73
2023-04-25T04:35:59.013Z,99256.04
2023-04-25T04:38:55.121Z,99261.48
2023-04-25T04:41:49.717Z,99264.00
2023-04-25T04:44:41.530Z,99266.80
2023-04-25T04:47:38.906Z,99266.70
2023-04-25T04:50:37.995Z,99264.96
2023-04-25T04:53:31.505Z,99264.23
2023-04-25T04:56:26.054Z,99258.99
2023-04-25T04:59:23.907Z,99261.08
2023-04-25T05:02:30.671Z,99260.63
2023-04-25T05:05:23.689Z,99262.92
2023-04-25T05:08:19.895Z,99258.73
2023-04-25T05:11:14.503Z,99261.59
2023-04-25T05:14:08.078Z,99270.73
2023-04-25T05:17:14.155Z,99267.49
2023-04-25T05:20:10.514Z,99265.77
2023-04-25T05:23:11.113Z,99262.84
2023-04-25T05:26:02.990Z,99257.35
2023-04-25T05:29:07.416Z,99259.02
2023-04-25T05:32:08.871Z,99260.92
2023-04-25T05:35:03.974Z,99260.59
2023-04-25T05:37:59.042Z,99264.36
2023-04-25T05:40:53.166Z,99264.33
2023-04-25T05:44:00.530Z,99266.15
2023-04-25T05:46:57.024Z,99268.17
2023-04-25T05:49:58.890Z,99273.11
2023-04-25T05:53:09.967Z,99274.72
2023-04-25T05:56:03.028Z,99279.21
2023-04-25T05:58:56.697Z,99279.37
2023-04-25T06:01:44.873Z,99278.34
2023-04-25T06:04:38.441Z,99282.68
2023-04-25T06:07:33.195Z,99282.14
2023-04-25T06:10:27.112Z,99289.94
2023-04-25T06:13:25.190Z,99299.28
2023-04-25T06:16:17.810Z,99309.88
2023-04-25T06:19:10.617Z,99323.92
2023-04-25T06:22:06.044Z,99339.17
2023-04-25T06:25:01.814Z,99350.50
2023-04-25T06:28:01.922Z,99351.19
2023-04-25T06:35:24.717Z,99343.61
2023-04-25T06:38:21.471Z,99340.40
2023-04-25T06:41:17.885Z,99337.02
2023-04-25T06:44:18.636Z,99335.29
2023-04-25T06:47:28.068Z,99332.89
2023-04-25T06:50:16.158Z,99329.36
2023-04-25T06:53:09.990Z,99324.14
2023-04-25T06:56:08.913Z,99321.69
2023-04-25T06:59:06.713Z,99318.19
2023-04-25T07:02:06.675Z,99321.85
2023-04-25T07:05:01.247Z,99318.34
2023-04-25T07:08:16.456Z,99316.88
2023-04-25T07:11:13.406Z,99314.89
2023-04-25T07:14:06.142Z,99317.91
2023-04-25T07:21:54.130Z,99322.94
2023-04-25T07:24:50.161Z,99322.77
2023-04-25T07:27:42.639Z,99323.58
2023-04-25T07:30:36.273Z,99323.40
2023-04-25T07:33:34.122Z,99325.09
2023-04-25T07:36:38.565Z,99331.66
2023-04-25T07:39:31.122Z,99331.89
2023-04-25T07:42:27.441Z,99335.27
2023-04-25T07:45:20.221Z,99336.10
2023-04-25T07:48:13.088Z,99335.40
2023-04-25T07:50:58.143Z,99332.88
2023-04-25T07:53:54.350Z,99338.93
2023-04-25T07:57:01.867Z,99341.81
2023-04-25T08:00:17.791Z,99344.04
2023-04-25T08:03:13.747Z,99343.91
2023-04-25T08:06:13.690Z,99344.33
2023-04-25T08:09:09.969Z,99344.16
2023-04-25T08:12:04.119Z,99344.14
2023-04-25T08:14:59.265Z,99342.61
2023-04-25T08:17:53.093Z,99342.54
2023-04-25T08:20:57.259Z,99347.55
2023-04-25T08:23:53.542Z,99350.25
2023-04-25T08:27:00.136Z,99351.48
2023-04-25T08:29:54.671Z,99353.83
2023-04-25T08:32:47.917Z,99359.31
2023-04-25T08:35:55.495Z,99360.98
2023-04-25T08:38:43.246Z,99365.19
2023-04-25T08:42:09.590Z,99369.73
2023-04-25T08:45:07.140Z,99375.68
2023-04-25T08:48:09.807Z,99379.98
2023-04-25T08:51:03.927Z,99380.25
2023-04-25T08:54:06.374Z,99387.43
2023-04-25T08:57:15.106Z,99389.63
2023-04-25T09:00:12.173Z,99393.65
2023-04-25T09:03:08.165Z,99388.27
2023-04-25T09:06:02.696Z,99390.73
2023-04-25T09:08:57.369Z,99395.26
2023-04-25T09:11:46.041Z,99398.11
2023-04-25T09:14:39.011Z,99404.84
2023-04-25T09:17:33.094Z,99405.27
2023-04-25T09:20:26.048Z,99408.38
2023-04-25T09:23:22.556Z,99408.32
2023-04-25T09:26:20.629Z,99410.09
2023-04-25T09:29:14.013Z,99417.29
2023-04-25T09:32:22.075Z,99415.05
2023-04-25T09:35:32.420Z,99420.04
2023-04-25T09:38:25.516Z,99426.14
2023-04-25T09:41:27.601Z,99427.70
2023-04-25T09:44:28.704Z,99433.23
2023-04-25T09:47:28.056Z,99435.26
2023-04-25T09:50:21.759Z,99436.29
2023-04-25T09:53:16.186Z,99436.79
2023-04-25T09:56:13.160Z,99438.27
2023-04-25T09:59:08.277Z,99441.02
2023-04-25T10:02:02.720Z,99438.13
2023-04-25T10:04:57.589Z,99442.36
2023-04-25T10:08:00.431Z,99445.85
2023-04-25T10:10:56.987Z,99442.47
2023-04-25T10:13:58.889Z,99443.88
2023-04-25T10:16:54.915Z,99443.18
2023-04-25T10:19:48.624Z,99443.63
2023-04-25T10:22:43.878Z,99443.27
2023-04-25T10:26:15.706Z,99443.26
2023-04-25T10:32:19.173Z,99443.74
2023-04-25T10:35:17.858Z,99444.64
2023-04-25T10:38:16.479Z,99440.06
2023-04-25T10:41:12.496Z,99440.59
2023-04-25T10:44:08.484Z,99435.73
2023-04-25T10:47:03.370Z,99437.20
2023-04-25T10:49:57.332Z,99437.02
2023-04-25T10:52:51.948Z,99435.66
2023-04-25T10:55:55.905Z,99435.38
2023-04-25T10:58:51.314Z,99438.27
2023-04-25T11:01:48.932Z,99437.95
2023-04-25T11:04:45.183Z,99441.09
2023-04-25T11:07:52.874Z,99443.27
2023-04-25T11:10:54.313Z,99443.02
2023-04-25T11:14:01.909Z,99441.17
2023-04-25T11:17:04.260Z,99438.91
2023-04-25T11:20:43.211Z,99440.02
2023-04-25T11:24:33.428Z,99437.10
2023-04-25T11:27:27.950Z,99439.17
2023-04-25T11:31:36.360Z,99439.77
2023-04-25T11:34:31.988Z,99442.77
2023-04-25T11:37:26.594Z,99441.13
2023-04-25T11:40:19.711Z,99439.82
2023-04-25T11:43:13.329Z,99441.70
2023-04-25T11:46:10.780Z,99441.14
2023-04-25T11:49:04.211Z,99442.02
2023-04-25T11:51:59.026Z,99441.45
2023-04-25T11:54:52.172Z,99441.52
2023-04-25T11:57:48.414Z,99439.29
2023-04-25T12:00:50.132Z,99438.24
2023-04-25T12:04:44.858Z,99440.46
2023-04-25T12:07:07.936Z,99442.20
2023-04-25T12:10:01.077Z,99444.02
2023-04-25T12:12:57.136Z,99440.11
2023-04-25T12:15:51.263Z,99440.39
2023-04-25T12:19:06.293Z,99443.61
2023-04-25T12:24:48.813Z,99443.29
2023-04-25T12:27:34.808Z,99445.54
2023-04-25T12:30:28.193Z,99442.86
2023-04-25T12:33:21.314Z,99443.63
2023-04-25T12:36:15.699Z,99445.19
2023-04-25T12:39:09.038Z,99443.67
2023-04-25T12:42:06.847Z,99442.89
2023-04-25T12:45:01.333Z,99444.77
2023-04-25T12:47:55.148Z,99442.16
2023-04-25T12:50:54.522Z,99441.02
2023-04-25T12:53:50.395Z,99437.36
2023-04-25T12:57:07.044Z,99431.83
2023-04-25T13:00:02.020Z,99428.55
2023-04-25T13:02:57.521Z,99431.73
2023-04-25T13:05:51.944Z,99430.74
2023-04-25T13:08:44.709Z,99431.68
2023-04-25T13:11:38.673Z,99427.33
2023-04-25T13:14:32.621Z,99424.55
2023-04-25T13:17:26.897Z,99424.90
2023-04-25T13:20:23.588Z,99420.11
2023-04-25T13:23:17.470Z,99421.19
2023-04-25T13:26:09.793Z,99421.54
2023-04-25T13:29:04.930Z,99419.88
2023-04-25T13:31:57.524Z,99415.86
2023-04-25T13:34:56.389Z,99415.88
2023-04-25T13:37:49.021Z,99415.07
2023-04-25T13:40:41.651Z,99416.60
2023-04-25T13:43:36.185Z,99418.05
2023-04-25T13:46:48.521Z,99413.59
2023-04-25T13:49:40.208Z,99416.71
2023-04-25T13:52:33.101Z,99414.96
2023-04-25T13:55:26.717Z,99413.54
2023-04-25T13:58:24.925Z,99415.25
2023-04-25T14:01:18.224Z,99413.40
2023-04-25T14:04:12.716Z,99413.30
2023-04-25T14:07:06.252Z,99412.95
2023-04-25T14:10:01.036Z,99411.02
2023-04-25T14:12:53.641Z,99412.49
2023-04-25T14:15:47.339Z,99412.79
2023-04-25T14:18:39.868Z,99412.33
2023-04-25T14:22:35.409Z,99415.89
2023-04-25T14:25:35.097Z,99419.67
2023-04-25T14:28:03.092Z,99418.70
2023-04-25T14:30:56.560Z,99414.27
2023-04-25T14:33:52.432Z,99419.41
2023-04-25T14:36:45.838Z,99412.72
2023-04-25T14:39:39.424Z,99416.73
2023-04-25T14:42:33.422Z,99416.84
2023-04-25T14:45:27.895Z,99419.84
2023-04-25T14:48:24.881Z,99426.55
2023-04-25T14:51:39.004Z,99424.59
2023-04-25T14:54:31.627Z,99427.17
2023-04-25T14:57:29.384Z,99425.62
2023-04-25T15:00:26.528Z,99429.14
2023-04-25T15:03:20.888Z,99425.19
2023-04-25T15:06:14.013Z,99426.75
2023-04-25T15:09:07.581Z,99425.77
2023-04-25T15:12:01.748Z,99421.63
2023-04-25T15:14:55.271Z,99425.60
2023-04-25T15:17:49.640Z,99429.27
2023-04-25T15:20:42.970Z,99433.04
2023-04-25T15:23:36.224Z,99432.66
2023-04-25T15:26:29.856Z,99434.44
2023-04-25T15:29:16.771Z,99434.30
2023-04-25T15:32:09.781Z,99432.78
2023-04-25T15:35:04.802Z,99431.35
2023-04-25T15:38:00.308Z,99434.66
2023-04-25T15:40:57.805Z,99434.55
2023-04-25T15:43:51.780Z,99437.59
2023-04-25T15:46:48.171Z,99445.13
2023-04-25T15:49:41.583Z,99447.46
2023-04-25T15:52:34.184Z,99447.06
2023-04-25T15:55:27.957Z,99450.09
2023-04-25T15:58:20.652Z,99446.23
2023-04-25T16:01:13.856Z,99450.89
2023-04-25T16:04:07.337Z,99451.34
2023-04-25T16:06:59.917Z,99450.58
2023-04-25T16:09:52.687Z,99450.08
2023-04-25T16:12:45.657Z,99449.23
2023-04-25T16:15:38.050Z,99455.10
2023-04-25T16:18:32.324Z,99458.23
2023-04-25T16:21:24.843Z,99464.70
2023-04-25T16:24:18.241Z,99465.88
2023-04-25T16:27:10.924Z,99463.48
2023-04-25T16:30:03.878Z,99466.85
2023-04-25T16:32:58.118Z,99468.84
2023-04-25T16:35:52.750Z,99466.83
2023-04-25T16:38:49.264Z,99480.18
2023-04-25T16:41:42.775Z,99477.78
2023-04-25T16:44:35.578Z,99479.85
2023-04-25T16:47:28.695Z,99484.86
2023-04-25T16:50:21.978Z,99483.98
2023-04-25T16:53:14.960Z,99485.86
2023-04-25T16:56:08.495Z,99482.16
2023-04-25T16:59:02.420Z,99486.91
2023-04-25T17:01:58.225Z,99487.89
2023-04-25T17:04:51.403Z,99491.83
2023-04-25T17:07:44.061Z,99491.84
2023-04-25T17:10:37.039Z,99494.16
2023-04-25T17:13:30.994Z,99496.86
2023-04-25T17:16:25.637Z,99501.48
2023-04-25T17:19:22.133Z,99503.52
2023-04-25T17:22:15.187Z,99507.41
2023-04-25T17:25:10.032Z,99511.05
2023-04-25T17:28:03.162Z,99511.71
2023-04-25T17:30:58.680Z,99514.34
2023-04-25T17:33:51.828Z,99516.77
2023-04-25T17:36:44.287Z,99518.55
2023-04-25T17:39:37.328Z,99518.91
2023-04-25T17:42:30.894Z,99519.17
2023-04-25T17:45:24.073Z,99519.05
2023-04-25T17:48:16.886Z,99526.22
2023-04-25T17:51:09.712Z,99523.66
2023-04-25T17:54:02.622Z,99527.98
2023-04-25T17:56:57.122Z,99529.16
2023-04-25T17:59:49.887Z,99530.69
2023-04-25T18:02:42.504Z,99536.67
2023-04-25T18:05:34.997Z,99543.19
2023-04-25T18:08:28.033Z,99545.74
2023-04-25T18:11:20.806Z,99549.65
2023-04-25T18:14:15.538Z,99555.16
2023-04-25T18:17:09.148Z,99561.23
2023-04-25T18:20:02.074Z,99567.46
2023-04-25T18:22:54.558Z,99569.02
2023-04-25T18:25:54.818Z,99572.45
2023-04-25T18:28:48.913Z,99571.23
2023-04-25T18:31:43.640Z,99575.33
2023-04-25T18:34:36.454Z,99578.96
2023-04-25T18:37:30.779Z,99585.00
2023-04-25T18:40:23.315Z,99588.84
2023-04-25T18:43:16.327Z,99592.94
2023-04-25T18:46:09.221Z,99594.92
2023-04-25T18:49:04.124Z,99595.98
2023-04-25T18:51:57.548Z,99600.77
2023-04-25T18:54:53.813Z,99600.35
2023-04-25T18:57:50.039Z,99605.45
2023-04-25T19:00:42.830Z,99603.45
2023-04-25T19:03:28.706Z,99602.56
2023-04-25T19:06:24.359Z,99603.42
2023-04-25T19:09:18.614Z,99606.86
2023-04-25T19:12:12.460Z,99606.40
2023-04-25T19:14:59.336Z,99608.63
2023-04-25T19:17:53.632Z,99612.96
2023-04-25T19:20:49.620Z,99612.72
2023-04-25T19:23:35.882Z,99618.20
2023-04-25T19:26:28.637Z,99621.09
2023-04-25T19:29:22.065Z,99620.83
2023-04-25T19:32:16.139Z,99621.20
2023-04-25T19:35:11.821Z,99622.12
2023-04-25T19:38:04.547Z,99622.59
2023-04-25T19:40:57.952Z,99625.27
2023-04-25T19:43:51.739Z,99622.42
2023-04-25T19:46:49.996Z,99617.48
2023-04-25T19:49:43.656Z,99618.89
2023-04-25T19:52:38.243Z,99623.55
2023-04-25T19:55:30.956Z,99620.60
2023-04-25T19:58:23.998Z,99618.31
2023-04-25T20:01:22.832Z,99619.31
2023-04-25T20:04:18.854Z,99620.73
2023-04-25T20:07:11.300Z,99616.64
2023-04-25T20:10:06.931Z,99613.58
2023-04-25T20:13:00.033Z,99616.04
2023-04-25T20:15:53.942Z,99618.32
2023-04-25T20:18:48.462Z,99620.02
2023-04-25T20:21:41.338Z,99619.11
2023-04-25T20:24:34.114Z,99618.61
2023-04-25T20:27:28.034Z,99620.21
2023-04-25T20:30:23.678Z,99615.04
2023-04-25T20:33:16.186Z,99616.33
2023-04-25T20:36:10.126Z,99620.13
2023-04-25T20:39:05.865Z,99619.34
2023-04-25T20:42:03.251Z,99621.91
2023-04-25T20:44:57.434Z,99625.61
2023-04-25T20:47:50.240Z,99625.76
2023-04-25T20:50:49.614Z,99626.55
2023-04-25T20:53:41.778Z,99628.56
2023-04-25T20:56:37.228Z,99629.89
2023-04-25T20:59:29.860Z,99630.42
2023-04-25T21:02:22.371Z,99627.54
2023-04-25T21:05:14.937Z,99631.38
2023-04-25T21:08:09.014Z,99628.26
2023-04-25T21:11:10.798Z,99627.58
2023-04-25T21:14:07.316Z,99626.90
2023-04-25T21:17:02.135Z,99631.15
2023-04-25T21:19:54.790Z,99625.95
2023-04-25T21:22:53.018Z,99626.58
2023-04-25T21:25:51.907Z,99625.41
2023-04-25T21:28:44.723Z,99624.46
2023-04-25T21:31:38.072Z,99624.69
2023-04-25T21:34:31.112Z,99622.86
2023-04-25T21:37:24.556Z,99620.83
2023-04-25T21:40:18.943Z,99624.26
2023-04-25T21:43:12.275Z,99627.20
2023-04-25T21:46:22.116Z,99624.06
2023-04-25T21:49:19.623Z,99621.66
2023-04-25T21:52:12.572Z,99621.65
2023-04-25T21:55:05.983Z,99620.50
2023-04-25T21:57:58.808Z,99619.38
2023-04-25T22:00:52.991Z,99621.36
2023-04-25T22:03:39.965Z,99622.92
2023-04-25T22:06:33.286Z,99623.34
2023-04-25T22:09:26.005Z,99619.43
2023-04-25T22:12:19.103Z,99623.45
2023-04-25T22:15:14.069Z,99626.63
2023-04-25T22:18:07.065Z,99626.83
2023-04-25T22:21:01.456Z,99629.91
2023-04-25T22:23:54.032Z,99630.92
2023-04-25T22:26:49.480Z,99633.79
2023-04-25T22:29:42.447Z,99635.39
2023-04-25T22:32:34.950Z,99638.39
2023-04-25T22:35:20.758Z,99642.31
2023-04-25T22:38:13.257Z,99646.21
2023-04-25T22:41:07.202Z,99646.70
2023-04-25T22:44:02.923Z,99647.89
2023-04-25T22:47:02.888Z,99651.34
2023-04-25T22:49:58.139Z,99651.88
2023-04-25T22:52:50.919Z,99651.81
2023-04-25T22:55:44.599Z,99656.50
2023-04-25T22:58:38.577Z,99659.75
2023-04-25T23:01:31.856Z,99654.08
2023-04-25T23:04:14.955Z,99657.63
2023-04-25T23:07:07.775Z,99660.55
2023-04-25T23:10:01.201Z,99658.95
2023-04-25T23:12:57.110Z,99667.92
2023-04-25T23:15:51.306Z,99672.48
2023-04-25T23:18:39.419Z,99672.60
2023-04-25T23:21:32.294Z,99676.81
2023-04-25T23:24:26.133Z,99670.95
2023-04-25T23:27:18.617Z,99673.61
2023-04-25T23:30:13.719Z,99673.54
2023-04-25T23:33:06.090Z,99672.47
2023-04-25T23:35:51.921Z,99673.95
2023-04-25T23:38:45.179Z,99668.61
2023-04-25T23:41:38.672Z,99677.63
2023-04-25T23:44:31.984Z,99684.22
2023-04-25T23:47:25.596Z,99689.08
2023-04-25T23:50:18.858Z,99686.08
2023-04-25T23:53:14.293Z,99688.77
2023-04-25T23:56:11.100Z,99691.50
2023-04-25T23:58:57.906Z,99693.27
